sensor_id;sensor_type;location;lat;lon;timestamp;P1;durP1;ratioP1;P2;durP2;ratioP2
9117;SDS011;4594;50.994;7.126;2024-02-21T00:02:09;7.87;;;4.17;;
9117;SDS011;4594;50.994;7.126;2024-02-21T00:04:34;9.07;;;3.97;;
9117;SDS011;4594;50.994;7.126;2024-02-21T00:07:01;6.83;;;3.77;;
9117;SDS011;4594;50.994;7.126;2024-02-21T00:09:27;8.47;;;4.10;;
9117;SDS011;4594;50.994;7.126;2024-02-21T00:14:21;7.70;;;4.23;;
9117;SDS011;4594;50.994;7.126;2024-02-21T00:16:46;8.10;;;4.20;;
9117;SDS011;4594;50.994;7.126;2024-02-21T00:19:12;5.17;;;3.87;;
9117;SDS011;4594;50.994;7.126;2024-02-21T00:21:39;7.10;;;3.63;;
9117;SDS011;4594;50.994;7.126;2024-02-21T00:24:05;5.47;;;3.83;;
9117;SDS011;4594;50.994;7.126;2024-02-21T00:26:31;6.40;;;4.03;;
9117;SDS011;4594;50.994;7.126;2024-02-21T00:28:57;7.47;;;4.17;;
9117;SDS011;4594;50.994;7.126;2024-02-21T00:31:23;10.27;;;3.80;;
9117;SDS011;4594;50.994;7.126;2024-02-21T00:33:48;8.37;;;4.50;;
9117;SDS011;4594;50.994;7.126;2024-02-21T00:36:15;5.20;;;3.97;;
9117;SDS011;4594;50.994;7.126;2024-02-21T00:38:41;6.57;;;4.17;;
9117;SDS011;4594;50.994;7.126;2024-02-21T00:41:07;9.17;;;4.40;;
9117;SDS011;4594;50.994;7.126;2024-02-21T00:43:33;9.23;;;4.33;;
9117;SDS011;4594;50.994;7.126;2024-02-21T00:45:58;7.93;;;3.73;;
9117;SDS011;4594;50.994;7.126;2024-02-21T00:48:24;9.17;;;3.93;;
9117;SDS011;4594;50.994;7.126;2024-02-21T00:50:50;8.73;;;4.37;;
9117;SDS011;4594;50.994;7.126;2024-02-21T00:53:16;6.37;;;4.07;;
9117;SDS011;4594;50.994;7.126;2024-02-21T00:55:42;6.77;;;3.87;;
9117;SDS011;4594;50.994;7.126;2024-02-21T00:58:08;6.97;;;4.60;;
9117;SDS011;4594;50.994;7.126;2024-02-21T01:00:34;7.47;;;4.00;;
9117;SDS011;4594;50.994;7.126;2024-02-21T01:02:59;5.97;;;4.20;;
9117;SDS011;4594;50.994;7.126;2024-02-21T01:05:25;7.43;;;4.07;;
9117;SDS011;4594;50.994;7.126;2024-02-21T01:07:52;6.60;;;3.93;;
9117;SDS011;4594;50.994;7.126;2024-02-21T01:10:18;11.97;;;4.17;;
9117;SDS011;4594;50.994;7.126;2024-02-21T01:12:43;15.73;;;4.73;;
9117;SDS011;4594;50.994;7.126;2024-02-21T01:15:09;10.67;;;4.27;;
9117;SDS011;4594;50.994;7.126;2024-02-21T01:17:35;13.60;;;5.30;;
9117;SDS011;4594;50.994;7.126;2024-02-21T01:20:01;7.47;;;4.23;;
9117;SDS011;4594;50.994;7.126;2024-02-21T01:22:30;8.47;;;4.33;;
9117;SDS011;4594;50.994;7.126;2024-02-21T01:24:56;6.77;;;3.93;;
9117;SDS011;4594;50.994;7.126;2024-02-21T01:27:22;4.77;;;4.30;;
9117;SDS011;4594;50.994;7.126;2024-02-21T01:29:47;7.07;;;4.40;;
9117;SDS011;4594;50.994;7.126;2024-02-21T01:32:14;5.73;;;4.30;;
9117;SDS011;4594;50.994;7.126;2024-02-21T01:34:41;8.27;;;4.73;;
9117;SDS011;4594;50.994;7.126;2024-02-21T01:37:06;10.63;;;4.77;;
9117;SDS011;4594;50.994;7.126;2024-02-21T01:39:32;5.63;;;4.50;;
9117;SDS011;4594;50.994;7.126;2024-02-21T01:41:59;5.97;;;3.60;;
9117;SDS011;4594;50.994;7.126;2024-02-21T01:44:25;9.37;;;4.07;;
9117;SDS011;4594;50.994;7.126;2024-02-21T01:46:51;8.90;;;4.00;;
9117;SDS011;4594;50.994;7.126;2024-02-21T01:49:18;9.00;;;4.40;;
9117;SDS011;4594;50.994;7.126;2024-02-21T01:51:46;7.80;;;4.47;;
9117;SDS011;4594;50.994;7.126;2024-02-21T01:54:13;8.33;;;4.40;;
9117;SDS011;4594;50.994;7.126;2024-02-21T01:56:41;8.30;;;4.07;;
9117;SDS011;4594;50.994;7.126;2024-02-21T01:59:08;9.47;;;4.70;;
9117;SDS011;4594;50.994;7.126;2024-02-21T02:01:34;6.20;;;4.77;;
9117;SDS011;4594;50.994;7.126;2024-02-21T02:04:00;10.27;;;4.70;;
9117;SDS011;4594;50.994;7.126;2024-02-21T02:06:26;8.00;;;4.53;;
9117;SDS011;4594;50.994;7.126;2024-02-21T02:08:52;7.00;;;4.67;;
9117;SDS011;4594;50.994;7.126;2024-02-21T02:11:19;5.97;;;4.30;;
9117;SDS011;4594;50.994;7.126;2024-02-21T02:13:45;9.87;;;4.37;;
9117;SDS011;4594;50.994;7.126;2024-02-21T02:16:10;8.73;;;4.93;;
9117;SDS011;4594;50.994;7.126;2024-02-21T02:18:36;8.03;;;4.17;;
9117;SDS011;4594;50.994;7.126;2024-02-21T02:21:03;7.30;;;4.00;;
9117;SDS011;4594;50.994;7.126;2024-02-21T02:23:38;4.50;;;4.10;;
9117;SDS011;4594;50.994;7.126;2024-02-21T02:26:06;7.07;;;4.07;;
9117;SDS011;4594;50.994;7.126;2024-02-21T02:28:32;8.80;;;4.53;;
9117;SDS011;4594;50.994;7.126;2024-02-21T02:30:58;7.03;;;3.90;;
9117;SDS011;4594;50.994;7.126;2024-02-21T02:33:23;5.93;;;4.17;;
9117;SDS011;4594;50.994;7.126;2024-02-21T02:35:49;6.80;;;4.60;;
9117;SDS011;4594;50.994;7.126;2024-02-21T02:38:15;6.90;;;4.03;;
9117;SDS011;4594;50.994;7.126;2024-02-21T02:40:41;6.83;;;4.23;;
9117;SDS011;4594;50.994;7.126;2024-02-21T02:43:07;10.77;;;4.30;;
9117;SDS011;4594;50.994;7.126;2024-02-21T02:45:33;9.13;;;4.57;;
9117;SDS011;4594;50.994;7.126;2024-02-21T02:47:59;11.17;;;4.47;;
9117;SDS011;4594;50.994;7.126;2024-02-21T02:50:25;5.67;;;4.07;;
9117;SDS011;4594;50.994;7.126;2024-02-21T02:52:52;4.73;;;3.57;;
9117;SDS011;4594;50.994;7.126;2024-02-21T02:55:19;9.57;;;4.43;;
9117;SDS011;4594;50.994;7.126;2024-02-21T02:57:45;6.57;;;4.63;;
9117;SDS011;4594;50.994;7.126;2024-02-21T03:00:11;7.40;;;3.93;;
9117;SDS011;4594;50.994;7.126;2024-02-21T03:02:39;6.77;;;4.47;;
9117;SDS011;4594;50.994;7.126;2024-02-21T03:05:14;5.53;;;3.93;;
9117;SDS011;4594;50.994;7.126;2024-02-21T03:07:45;5.87;;;4.43;;
9117;SDS011;4594;50.994;7.126;2024-02-21T03:10:12;5.03;;;4.43;;
9117;SDS011;4594;50.994;7.126;2024-02-21T03:12:38;7.33;;;4.27;;
9117;SDS011;4594;50.994;7.126;2024-02-21T03:15:05;7.20;;;4.30;;
9117;SDS011;4594;50.994;7.126;2024-02-21T03:17:31;7.80;;;4.60;;
9117;SDS011;4594;50.994;7.126;2024-02-21T03:19:59;6.73;;;4.37;;
9117;SDS011;4594;50.994;7.126;2024-02-21T03:22:34;7.03;;;4.33;;
9117;SDS011;4594;50.994;7.126;2024-02-21T03:24:59;8.93;;;4.00;;
9117;SDS011;4594;50.994;7.126;2024-02-21T03:27:26;5.40;;;4.13;;
9117;SDS011;4594;50.994;7.126;2024-02-21T03:29:52;6.10;;;4.37;;
9117;SDS011;4594;50.994;7.126;2024-02-21T03:32:17;8.77;;;4.37;;
9117;SDS011;4594;50.994;7.126;2024-02-21T03:34:43;9.73;;;4.73;;
9117;SDS011;4594;50.994;7.126;2024-02-21T03:37:09;6.53;;;3.70;;
9117;SDS011;4594;50.994;7.126;2024-02-21T03:39:34;5.53;;;3.87;;
9117;SDS011;4594;50.994;7.126;2024-02-21T03:42:00;6.97;;;3.80;;
9117;SDS011;4594;50.994;7.126;2024-02-21T03:44:29;8.10;;;4.37;;
9117;SDS011;4594;50.994;7.126;2024-02-21T03:46:56;6.43;;;3.83;;
9117;SDS011;4594;50.994;7.126;2024-02-21T03:49:23;7.90;;;4.20;;
9117;SDS011;4594;50.994;7.126;2024-02-21T03:51:49;6.83;;;3.73;;
9117;SDS011;4594;50.994;7.126;2024-02-21T03:54:14;5.60;;;3.80;;
9117;SDS011;4594;50.994;7.126;2024-02-21T03:56:40;10.43;;;4.70;;
9117;SDS011;4594;50.994;7.126;2024-02-21T03:59:06;5.73;;;4.43;;
9117;SDS011;4594;50.994;7.126;2024-02-21T04:01:33;9.63;;;4.33;;
9117;SDS011;4594;50.994;7.126;2024-02-21T04:03:59;5.10;;;3.73;;
9117;SDS011;4594;50.994;7.126;2024-02-21T04:06:26;7.43;;;4.33;;
9117;SDS011;4594;50.994;7.126;2024-02-21T04:08:51;6.70;;;3.63;;
9117;SDS011;4594;50.994;7.126;2024-02-21T04:11:17;7.97;;;4.10;;
9117;SDS011;4594;50.994;7.126;2024-02-21T04:13:43;12.93;;;4.57;;
9117;SDS011;4594;50.994;7.126;2024-02-21T04:16:14;6.93;;;4.10;;
9117;SDS011;4594;50.994;7.126;2024-02-21T04:18:41;9.87;;;3.97;;
9117;SDS011;4594;50.994;7.126;2024-02-21T04:21:08;7.60;;;3.90;;
9117;SDS011;4594;50.994;7.126;2024-02-21T04:23:34;10.40;;;4.20;;
9117;SDS011;4594;50.994;7.126;2024-02-21T04:26:00;7.17;;;4.03;;
9117;SDS011;4594;50.994;7.126;2024-02-21T04:28:26;7.77;;;4.20;;
9117;SDS011;4594;50.994;7.126;2024-02-21T04:30:52;7.83;;;4.37;;
9117;SDS011;4594;50.994;7.126;2024-02-21T04:33:17;5.03;;;3.87;;
9117;SDS011;4594;50.994;7.126;2024-02-21T04:35:43;7.60;;;3.47;;
9117;SDS011;4594;50.994;7.126;2024-02-21T04:38:09;6.93;;;3.93;;
9117;SDS011;4594;50.994;7.126;2024-02-21T04:40:35;10.63;;;4.27;;
9117;SDS011;4594;50.994;7.126;2024-02-21T04:43:00;5.40;;;3.53;;
9117;SDS011;4594;50.994;7.126;2024-02-21T04:45:26;7.10;;;3.47;;
9117;SDS011;4594;50.994;7.126;2024-02-21T04:47:52;9.40;;;4.40;;
9117;SDS011;4594;50.994;7.126;2024-02-21T04:50:17;6.97;;;4.30;;
9117;SDS011;4594;50.994;7.126;2024-02-21T04:52:43;4.83;;;3.27;;
9117;SDS011;4594;50.994;7.126;2024-02-21T04:55:08;8.73;;;4.23;;
9117;SDS011;4594;50.994;7.126;2024-02-21T04:57:34;5.73;;;3.80;;
9117;SDS011;4594;50.994;7.126;2024-02-21T05:00:00;4.83;;;3.60;;
9117;SDS011;4594;50.994;7.126;2024-02-21T05:02:25;5.13;;;3.73;;
9117;SDS011;4594;50.994;7.126;2024-02-21T05:04:52;4.40;;;3.57;;
9117;SDS011;4594;50.994;7.126;2024-02-21T05:07:18;8.57;;;4.20;;
9117;SDS011;4594;50.994;7.126;2024-02-21T05:09:44;6.30;;;3.90;;
9117;SDS011;4594;50.994;7.126;2024-02-21T05:12:11;6.97;;;3.70;;
9117;SDS011;4594;50.994;7.126;2024-02-21T05:14:37;4.87;;;3.77;;
9117;SDS011;4594;50.994;7.126;2024-02-21T05:17:03;7.87;;;3.70;;
9117;SDS011;4594;50.994;7.126;2024-02-21T05:19:29;5.07;;;3.63;;
9117;SDS011;4594;50.994;7.126;2024-02-21T05:21:55;7.60;;;3.80;;
9117;SDS011;4594;50.994;7.126;2024-02-21T05:24:21;11.87;;;4.07;;
9117;SDS011;4594;50.994;7.126;2024-02-21T05:26:46;5.20;;;3.40;;
9117;SDS011;4594;50.994;7.126;2024-02-21T05:29:13;7.27;;;4.07;;
9117;SDS011;4594;50.994;7.126;2024-02-21T05:34:20;7.10;;;4.13;;
9117;SDS011;4594;50.994;7.126;2024-02-21T05:36:46;8.57;;;3.50;;
9117;SDS011;4594;50.994;7.126;2024-02-21T05:39:14;9.00;;;3.87;;
9117;SDS011;4594;50.994;7.126;2024-02-21T05:41:41;6.03;;;3.83;;
9117;SDS011;4594;50.994;7.126;2024-02-21T05:44:07;6.43;;;3.67;;
9117;SDS011;4594;50.994;7.126;2024-02-21T05:46:33;7.07;;;3.80;;
9117;SDS011;4594;50.994;7.126;2024-02-21T05:48:59;7.63;;;3.73;;
9117;SDS011;4594;50.994;7.126;2024-02-21T05:51:24;5.73;;;3.83;;
9117;SDS011;4594;50.994;7.126;2024-02-21T05:53:50;4.30;;;3.30;;
9117;SDS011;4594;50.994;7.126;2024-02-21T05:56:15;6.63;;;3.87;;
9117;SDS011;4594;50.994;7.126;2024-02-21T05:58:43;5.70;;;3.27;;
9117;SDS011;4594;50.994;7.126;2024-02-21T06:01:08;3.47;;;3.17;;
9117;SDS011;4594;50.994;7.126;2024-02-21T06:03:36;7.97;;;4.07;;
9117;SDS011;4594;50.994;7.126;2024-02-21T06:06:02;3.60;;;3.23;;
9117;SDS011;4594;50.994;7.126;2024-02-21T06:08:29;5.23;;;3.27;;
9117;SDS011;4594;50.994;7.126;2024-02-21T06:10:55;7.47;;;4.60;;
9117;SDS011;4594;50.994;7.126;2024-02-21T06:13:22;8.77;;;4.40;;
9117;SDS011;4594;50.994;7.126;2024-02-21T06:15:49;5.17;;;4.00;;
9117;SDS011;4594;50.994;7.126;2024-02-21T06:18:18;8.77;;;5.10;;
9117;SDS011;4594;50.994;7.126;2024-02-21T06:20:44;6.10;;;4.03;;
9117;SDS011;4594;50.994;7.126;2024-02-21T06:23:15;4.53;;;4.00;;
9117;SDS011;4594;50.994;7.126;2024-02-21T06:25:42;8.20;;;4.73;;
9117;SDS011;4594;50.994;7.126;2024-02-21T06:28:08;7.63;;;4.00;;
9117;SDS011;4594;50.994;7.126;2024-02-21T06:30:34;8.47;;;3.57;;
9117;SDS011;4594;50.994;7.126;2024-02-21T06:33:00;9.70;;;4.13;;
9117;SDS011;4594;50.994;7.126;2024-02-21T06:35:27;6.77;;;3.70;;
9117;SDS011;4594;50.994;7.126;2024-02-21T06:37:53;5.63;;;3.37;;
9117;SDS011;4594;50.994;7.126;2024-02-21T06:40:22;4.83;;;3.73;;
9117;SDS011;4594;50.994;7.126;2024-02-21T06:42:49;5.73;;;3.53;;
9117;SDS011;4594;50.994;7.126;2024-02-21T06:45:15;7.00;;;3.50;;
9117;SDS011;4594;50.994;7.126;2024-02-21T06:47:41;11.13;;;3.97;;
9117;SDS011;4594;50.994;7.126;2024-02-21T06:50:08;5.13;;;3.37;;
9117;SDS011;4594;50.994;7.126;2024-02-21T06:52:35;5.57;;;3.80;;
9117;SDS011;4594;50.994;7.126;2024-02-21T06:55:03;5.20;;;3.40;;
9117;SDS011;4594;50.994;7.126;2024-02-21T06:57:30;6.33;;;3.43;;
9117;SDS011;4594;50.994;7.126;2024-02-21T06:59:56;8.93;;;3.40;;
9117;SDS011;4594;50.994;7.126;2024-02-21T07:02:21;10.53;;;4.13;;
9117;SDS011;4594;50.994;7.126;2024-02-21T07:04:47;6.67;;;3.40;;
9117;SDS011;4594;50.994;7.126;2024-02-21T07:07:13;5.33;;;3.60;;
9117;SDS011;4594;50.994;7.126;2024-02-21T07:09:38;6.70;;;3.20;;
9117;SDS011;4594;50.994;7.126;2024-02-21T07:12:04;5.40;;;3.70;;
9117;SDS011;4594;50.994;7.126;2024-02-21T07:14:33;8.20;;;3.33;;
9117;SDS011;4594;50.994;7.126;2024-02-21T07:17:00;3.30;;;3.00;;
9117;SDS011;4594;50.994;7.126;2024-02-21T07:19:26;4.90;;;3.63;;
9117;SDS011;4594;50.994;7.126;2024-02-21T07:21:52;4.80;;;3.43;;
9117;SDS011;4594;50.994;7.126;2024-02-21T07:24:17;6.73;;;3.40;;
9117;SDS011;4594;50.994;7.126;2024-02-21T07:26:43;4.83;;;3.73;;
9117;SDS011;4594;50.994;7.126;2024-02-21T07:29:09;6.73;;;3.93;;
9117;SDS011;4594;50.994;7.126;2024-02-21T07:31:42;5.93;;;3.30;;
9117;SDS011;4594;50.994;7.126;2024-02-21T07:34:08;7.20;;;3.90;;
9117;SDS011;4594;50.994;7.126;2024-02-21T07:36:34;5.63;;;3.50;;
9117;SDS011;4594;50.994;7.126;2024-02-21T07:39:02;5.90;;;3.40;;
9117;SDS011;4594;50.994;7.126;2024-02-21T07:41:29;7.80;;;4.00;;
9117;SDS011;4594;50.994;7.126;2024-02-21T07:43:55;3.40;;;3.10;;
9117;SDS011;4594;50.994;7.126;2024-02-21T07:46:21;4.67;;;3.20;;
9117;SDS011;4594;50.994;7.126;2024-02-21T07:48:47;5.33;;;2.70;;
9117;SDS011;4594;50.994;7.126;2024-02-21T07:51:13;6.57;;;3.37;;
9117;SDS011;4594;50.994;7.126;2024-02-21T07:53:39;4.83;;;3.40;;
9117;SDS011;4594;50.994;7.126;2024-02-21T07:56:10;5.77;;;3.13;;
9117;SDS011;4594;50.994;7.126;2024-02-21T07:58:36;8.73;;;3.50;;
9117;SDS011;4594;50.994;7.126;2024-02-21T08:01:02;4.23;;;3.17;;
9117;SDS011;4594;50.994;7.126;2024-02-21T08:03:28;9.17;;;3.53;;
9117;SDS011;4594;50.994;7.126;2024-02-21T08:05:53;4.40;;;2.93;;
9117;SDS011;4594;50.994;7.126;2024-02-21T08:08:19;5.90;;;3.33;;
9117;SDS011;4594;50.994;7.126;2024-02-21T08:10:47;4.47;;;2.77;;
9117;SDS011;4594;50.994;7.126;2024-02-21T08:13:13;4.77;;;3.30;;
9117;SDS011;4594;50.994;7.126;2024-02-21T08:15:39;9.80;;;3.60;;
9117;SDS011;4594;50.994;7.126;2024-02-21T08:18:06;5.93;;;4.00;;
9117;SDS011;4594;50.994;7.126;2024-02-21T08:20:33;7.83;;;3.27;;
9117;SDS011;4594;50.994;7.126;2024-02-21T08:22:59;7.13;;;3.10;;
9117;SDS011;4594;50.994;7.126;2024-02-21T08:25:24;4.40;;;3.17;;
9117;SDS011;4594;50.994;7.126;2024-02-21T08:27:50;6.93;;;3.50;;
9117;SDS011;4594;50.994;7.126;2024-02-21T08:30:18;4.17;;;3.30;;
9117;SDS011;4594;50.994;7.126;2024-02-21T08:32:45;6.70;;;3.40;;
9117;SDS011;4594;50.994;7.126;2024-02-21T08:35:10;6.37;;;3.50;;
9117;SDS011;4594;50.994;7.126;2024-02-21T08:37:37;6.80;;;3.60;;
9117;SDS011;4594;50.994;7.126;2024-02-21T08:40:03;12.00;;;3.63;;
9117;SDS011;4594;50.994;7.126;2024-02-21T08:42:33;7.60;;;4.10;;
9117;SDS011;4594;50.994;7.126;2024-02-21T08:45:04;7.20;;;3.80;;
9117;SDS011;4594;50.994;7.126;2024-02-21T08:47:30;6.27;;;3.40;;
9117;SDS011;4594;50.994;7.126;2024-02-21T08:49:56;5.43;;;3.87;;
9117;SDS011;4594;50.994;7.126;2024-02-21T08:52:22;8.47;;;3.80;;
9117;SDS011;4594;50.994;7.126;2024-02-21T08:54:47;10.27;;;4.77;;
9117;SDS011;4594;50.994;7.126;2024-02-21T08:57:13;10.83;;;4.47;;
9117;SDS011;4594;50.994;7.126;2024-02-21T08:59:39;6.27;;;3.90;;
9117;SDS011;4594;50.994;7.126;2024-02-21T09:02:05;10.43;;;3.77;;
9117;SDS011;4594;50.994;7.126;2024-02-21T09:04:32;6.93;;;4.03;;
9117;SDS011;4594;50.994;7.126;2024-02-21T09:06:58;4.87;;;3.40;;
9117;SDS011;4594;50.994;7.126;2024-02-21T09:09:24;8.87;;;3.43;;
9117;SDS011;4594;50.994;7.126;2024-02-21T09:11:50;6.70;;;4.00;;
9117;SDS011;4594;50.994;7.126;2024-02-21T09:14:16;6.20;;;3.80;;
9117;SDS011;4594;50.994;7.126;2024-02-21T09:16:42;8.13;;;3.70;;
9117;SDS011;4594;50.994;7.126;2024-02-21T09:19:09;6.63;;;3.40;;
9117;SDS011;4594;50.994;7.126;2024-02-21T09:21:36;9.27;;;3.83;;
9117;SDS011;4594;50.994;7.126;2024-02-21T09:24:03;8.37;;;3.37;;
9117;SDS011;4594;50.994;7.126;2024-02-21T09:26:30;8.17;;;3.50;;
9117;SDS011;4594;50.994;7.126;2024-02-21T09:28:56;5.53;;;3.50;;
9117;SDS011;4594;50.994;7.126;2024-02-21T09:31:21;8.23;;;4.23;;
9117;SDS011;4594;50.994;7.126;2024-02-21T09:33:47;5.83;;;3.50;;
9117;SDS011;4594;50.994;7.126;2024-02-21T09:36:13;5.07;;;2.90;;
9117;SDS011;4594;50.994;7.126;2024-02-21T09:38:40;12.57;;;4.07;;
9117;SDS011;4594;50.994;7.126;2024-02-21T09:43:42;11.03;;;3.80;;
9117;SDS011;4594;50.994;7.126;2024-02-21T09:46:15;13.30;;;3.83;;
9117;SDS011;4594;50.994;7.126;2024-02-21T09:51:47;6.53;;;3.60;;
9117;SDS011;4594;50.994;7.126;2024-02-21T09:54:15;7.03;;;3.87;;
9117;SDS011;4594;50.994;7.126;2024-02-21T09:56:45;8.60;;;3.53;;
9117;SDS011;4594;50.994;7.126;2024-02-21T09:59:12;5.90;;;3.33;;
9117;SDS011;4594;50.994;7.126;2024-02-21T10:01:42;7.30;;;3.50;;
9117;SDS011;4594;50.994;7.126;2024-02-21T10:04:12;4.07;;;2.93;;
9117;SDS011;4594;50.994;7.126;2024-02-21T10:06:38;7.57;;;3.40;;
9117;SDS011;4594;50.994;7.126;2024-02-21T10:09:05;5.53;;;3.20;;
9117;SDS011;4594;50.994;7.126;2024-02-21T10:11:32;11.00;;;4.27;;
9117;SDS011;4594;50.994;7.126;2024-02-21T10:14:04;4.60;;;3.33;;
9117;SDS011;4594;50.994;7.126;2024-02-21T10:16:33;4.60;;;3.43;;
9117;SDS011;4594;50.994;7.126;2024-02-21T10:18:59;6.30;;;3.53;;
9117;SDS011;4594;50.994;7.126;2024-02-21T10:21:25;7.77;;;3.37;;
9117;SDS011;4594;50.994;7.126;2024-02-21T10:23:51;5.77;;;3.07;;
9117;SDS011;4594;50.994;7.126;2024-02-21T10:26:20;7.87;;;3.63;;
9117;SDS011;4594;50.994;7.126;2024-02-21T10:28:49;7.93;;;3.20;;
9117;SDS011;4594;50.994;7.126;2024-02-21T10:31:23;6.80;;;3.20;;
9117;SDS011;4594;50.994;7.126;2024-02-21T10:34:00;6.47;;;3.30;;
9117;SDS011;4594;50.994;7.126;2024-02-21T10:36:30;5.53;;;3.37;;
9117;SDS011;4594;50.994;7.126;2024-02-21T10:38:56;8.07;;;3.80;;
9117;SDS011;4594;50.994;7.126;2024-02-21T10:41:22;5.40;;;3.07;;
9117;SDS011;4594;50.994;7.126;2024-02-21T10:43:50;7.67;;;3.30;;
9117;SDS011;4594;50.994;7.126;2024-02-21T10:46:19;7.33;;;3.67;;
9117;SDS011;4594;50.994;7.126;2024-02-21T10:48:47;10.90;;;3.70;;
9117;SDS011;4594;50.994;7.126;2024-02-21T10:51:34;7.60;;;3.70;;
9117;SDS011;4594;50.994;7.126;2024-02-21T10:56:44;7.60;;;3.67;;
9117;SDS011;4594;50.994;7.126;2024-02-21T10:59:11;7.57;;;3.43;;
9117;SDS011;4594;50.994;7.126;2024-02-21T11:01:39;5.67;;;3.80;;
9117;SDS011;4594;50.994;7.126;2024-02-21T11:04:05;4.00;;;2.87;;
9117;SDS011;4594;50.994;7.126;2024-02-21T11:06:33;7.33;;;3.33;;
9117;SDS011;4594;50.994;7.126;2024-02-21T11:09:02;5.90;;;2.90;;
9117;SDS011;4594;50.994;7.126;2024-02-21T11:11:33;7.40;;;3.57;;
9117;SDS011;4594;50.994;7.126;2024-02-21T11:14:09;5.93;;;3.40;;
9117;SDS011;4594;50.994;7.126;2024-02-21T11:16:46;8.70;;;3.40;;
9117;SDS011;4594;50.994;7.126;2024-02-21T11:21:46;9.37;;;3.47;;
9117;SDS011;4594;50.994;7.126;2024-02-21T11:27:09;7.80;;;2.90;;
9117;SDS011;4594;50.994;7.126;2024-02-21T11:29:56;4.53;;;2.97;;
9117;SDS011;4594;50.994;7.126;2024-02-21T11:32:24;6.37;;;3.07;;
9117;SDS011;4594;50.994;7.126;2024-02-21T11:34:55;7.77;;;3.63;;
9117;SDS011;4594;50.994;7.126;2024-02-21T11:37:26;8.30;;;3.50;;
9117;SDS011;4594;50.994;7.126;2024-02-21T11:39:57;9.03;;;3.10;;
9117;SDS011;4594;50.994;7.126;2024-02-21T11:42:24;8.50;;;3.87;;
9117;SDS011;4594;50.994;7.126;2024-02-21T11:44:52;5.83;;;3.27;;
9117;SDS011;4594;50.994;7.126;2024-02-21T11:47:18;5.53;;;3.33;;
9117;SDS011;4594;50.994;7.126;2024-02-21T11:49:47;10.17;;;3.43;;
9117;SDS011;4594;50.994;7.126;2024-02-21T11:52:22;9.57;;;3.43;;
9117;SDS011;4594;50.994;7.126;2024-02-21T11:54:50;6.57;;;3.20;;
9117;SDS011;4594;50.994;7.126;2024-02-21T11:57:17;3.30;;;3.00;;
9117;SDS011;4594;50.994;7.126;2024-02-21T11:59:46;4.23;;;3.00;;
9117;SDS011;4594;50.994;7.126;2024-02-21T12:02:14;6.20;;;3.43;;
9117;SDS011;4594;50.994;7.126;2024-02-21T12:04:40;6.40;;;3.23;;
9117;SDS011;4594;50.994;7.126;2024-02-21T12:07:08;5.97;;;3.10;;
9117;SDS011;4594;50.994;7.126;2024-02-21T12:09:34;6.77;;;3.50;;
9117;SDS011;4594;50.994;7.126;2024-02-21T12:12:01;5.97;;;2.90;;
9117;SDS011;4594;50.994;7.126;2024-02-21T12:14:29;7.07;;;3.40;;
9117;SDS011;4594;50.994;7.126;2024-02-21T12:16:57;7.87;;;3.27;;
9117;SDS011;4594;50.994;7.126;2024-02-21T12:19:24;7.07;;;2.93;;
9117;SDS011;4594;50.994;7.126;2024-02-21T12:21:50;5.30;;;3.13;;
9117;SDS011;4594;50.994;7.126;2024-02-21T12:24:17;5.93;;;3.30;;
9117;SDS011;4594;50.994;7.126;2024-02-21T12:26:53;6.83;;;3.23;;
9117;SDS011;4594;50.994;7.126;2024-02-21T12:29:21;5.77;;;2.90;;
9117;SDS011;4594;50.994;7.126;2024-02-21T12:31:49;3.77;;;2.97;;
9117;SDS011;4594;50.994;7.126;2024-02-21T12:34:16;4.20;;;2.97;;
9117;SDS011;4594;50.994;7.126;2024-02-21T12:36:45;6.83;;;3.00;;
9117;SDS011;4594;50.994;7.126;2024-02-21T12:39:14;8.23;;;3.30;;
9117;SDS011;4594;50.994;7.126;2024-02-21T12:41:40;8.40;;;2.90;;
9117;SDS011;4594;50.994;7.126;2024-02-21T12:44:09;8.20;;;3.60;;
9117;SDS011;4594;50.994;7.126;2024-02-21T12:46:38;11.80;;;3.00;;
9117;SDS011;4594;50.994;7.126;2024-02-21T12:49:04;8.80;;;3.87;;
9117;SDS011;4594;50.994;7.126;2024-02-21T12:51:32;5.50;;;3.00;;
9117;SDS011;4594;50.994;7.126;2024-02-21T12:53:59;7.73;;;3.00;;
9117;SDS011;4594;50.994;7.126;2024-02-21T12:56:25;6.97;;;3.10;;
9117;SDS011;4594;50.994;7.126;2024-02-21T12:58:52;5.07;;;3.30;;
9117;SDS011;4594;50.994;7.126;2024-02-21T13:01:18;9.43;;;3.00;;
9117;SDS011;4594;50.994;7.126;2024-02-21T13:03:44;4.83;;;3.00;;
9117;SDS011;4594;50.994;7.126;2024-02-21T13:06:11;5.87;;;2.70;;
9117;SDS011;4594;50.994;7.126;2024-02-21T13:08:37;4.57;;;2.43;;
9117;SDS011;4594;50.994;7.126;2024-02-21T13:11:03;5.60;;;3.20;;
9117;SDS011;4594;50.994;7.126;2024-02-21T13:13:29;6.50;;;2.97;;
9117;SDS011;4594;50.994;7.126;2024-02-21T13:15:56;4.67;;;2.90;;
9117;SDS011;4594;50.994;7.126;2024-02-21T13:18:24;3.53;;;2.80;;
9117;SDS011;4594;50.994;7.126;2024-02-21T13:20:51;5.37;;;2.93;;
9117;SDS011;4594;50.994;7.126;2024-02-21T13:23:16;3.63;;;2.87;;
9117;SDS011;4594;50.994;7.126;2024-02-21T13:25:42;4.07;;;2.80;;
9117;SDS011;4594;50.994;7.126;2024-02-21T13:28:10;6.07;;;3.03;;
9117;SDS011;4594;50.994;7.126;2024-02-21T13:30:36;5.80;;;2.87;;
9117;SDS011;4594;50.994;7.126;2024-02-21T13:33:02;5.40;;;2.90;;
9117;SDS011;4594;50.994;7.126;2024-02-21T13:35:28;4.97;;;2.73;;
9117;SDS011;4594;50.994;7.126;2024-02-21T13:37:54;4.73;;;2.73;;
9117;SDS011;4594;50.994;7.126;2024-02-21T13:40:20;6.63;;;2.80;;
9117;SDS011;4594;50.994;7.126;2024-02-21T13:42:45;5.87;;;3.00;;
9117;SDS011;4594;50.994;7.126;2024-02-21T13:45:11;4.80;;;3.20;;
9117;SDS011;4594;50.994;7.126;2024-02-21T13:47:37;8.67;;;3.93;;
9117;SDS011;4594;50.994;7.126;2024-02-21T13:50:04;8.30;;;3.70;;
9117;SDS011;4594;50.994;7.126;2024-02-21T13:52:35;4.83;;;3.13;;
9117;SDS011;4594;50.994;7.126;2024-02-21T13:55:04;6.23;;;2.93;;
9117;SDS011;4594;50.994;7.126;2024-02-21T13:57:33;3.77;;;2.70;;
9117;SDS011;4594;50.994;7.126;2024-02-21T14:00:00;8.00;;;3.43;;
9117;SDS011;4594;50.994;7.126;2024-02-21T14:02:28;5.90;;;3.27;;
9117;SDS011;4594;50.994;7.126;2024-02-21T14:04:55;4.17;;;3.27;;
9117;SDS011;4594;50.994;7.126;2024-02-21T14:07:21;5.60;;;3.30;;
9117;SDS011;4594;50.994;7.126;2024-02-21T14:09:47;7.73;;;3.03;;
9117;SDS011;4594;50.994;7.126;2024-02-21T14:12:12;4.43;;;3.00;;
9117;SDS011;4594;50.994;7.126;2024-02-21T14:14:38;5.43;;;2.97;;
9117;SDS011;4594;50.994;7.126;2024-02-21T14:17:04;5.07;;;2.80;;
9117;SDS011;4594;50.994;7.126;2024-02-21T14:19:30;6.40;;;3.47;;
9117;SDS011;4594;50.994;7.126;2024-02-21T14:21:56;7.50;;;3.30;;
9117;SDS011;4594;50.994;7.126;2024-02-21T14:24:22;8.80;;;3.60;;
9117;SDS011;4594;50.994;7.126;2024-02-21T14:26:48;9.17;;;3.27;;
9117;SDS011;4594;50.994;7.126;2024-02-21T14:29:14;8.80;;;3.17;;
9117;SDS011;4594;50.994;7.126;2024-02-21T14:31:40;2.87;;;2.67;;
9117;SDS011;4594;50.994;7.126;2024-02-21T14:34:05;5.47;;;3.07;;
9117;SDS011;4594;50.994;7.126;2024-02-21T14:36:32;6.70;;;3.07;;
9117;SDS011;4594;50.994;7.126;2024-02-21T14:38:58;6.77;;;3.30;;
9117;SDS011;4594;50.994;7.126;2024-02-21T14:41:24;5.70;;;3.30;;
9117;SDS011;4594;50.994;7.126;2024-02-21T14:43:50;6.33;;;2.90;;
9117;SDS011;4594;50.994;7.126;2024-02-21T14:46:16;6.50;;;2.90;;
9117;SDS011;4594;50.994;7.126;2024-02-21T14:48:42;8.33;;;3.30;;
9117;SDS011;4594;50.994;7.126;2024-02-21T14:51:10;4.47;;;2.83;;
9117;SDS011;4594;50.994;7.126;2024-02-21T14:53:36;5.53;;;3.17;;
9117;SDS011;4594;50.994;7.126;2024-02-21T14:56:02;5.30;;;3.10;;
9117;SDS011;4594;50.994;7.126;2024-02-21T14:58:27;6.77;;;2.87;;
9117;SDS011;4594;50.994;7.126;2024-02-21T15:00:53;2.73;;;2.43;;
9117;SDS011;4594;50.994;7.126;2024-02-21T15:03:19;5.57;;;2.60;;
9117;SDS011;4594;50.994;7.126;2024-02-21T15:05:45;4.87;;;2.70;;
9117;SDS011;4594;50.994;7.126;2024-02-21T15:08:12;5.00;;;2.50;;
9117;SDS011;4594;50.994;7.126;2024-02-21T15:10:41;3.87;;;2.60;;
9117;SDS011;4594;50.994;7.126;2024-02-21T15:13:08;4.33;;;2.77;;
9117;SDS011;4594;50.994;7.126;2024-02-21T15:15:34;6.03;;;2.97;;
9117;SDS011;4594;50.994;7.126;2024-02-21T15:17:59;4.70;;;2.40;;
9117;SDS011;4594;50.994;7.126;2024-02-21T15:20:25;4.87;;;2.50;;
9117;SDS011;4594;50.994;7.126;2024-02-21T15:22:53;2.73;;;2.53;;
9117;SDS011;4594;50.994;7.126;2024-02-21T15:25:19;3.27;;;2.97;;
9117;SDS011;4594;50.994;7.126;2024-02-21T15:27:45;4.13;;;2.40;;
9117;SDS011;4594;50.994;7.126;2024-02-21T15:30:11;6.97;;;2.43;;
9117;SDS011;4594;50.994;7.126;2024-02-21T15:32:39;5.33;;;2.60;;